Adak, Alaska
Current Conditions -  °F | °C
As of 2:36 PM on Sunday 21 Dec 2014 (Local Time) from PADK Reporting Station
Overcast Overcast  
Wind Chill: 31°   Ceiling: 2600
Heat Index: 37°   Visibility: 10mi
Dew Point: 32°   Wind: 8mph
Humidity: 81%   Direction: 300°WNW
Pressure: 29.82"   Gusts: NA
Location:  51.88°N, 176.66°W
Report Text: PADK 220036Z AUTO 30007KT 10SM BKN026 OVC033 03/00 A2982 RMK AO1
Loading
Personal Weather Stations






























Interactive Weather Map New forecast layout! Learn more

10-Day Weather Forecast

Advertisements
Track Severe Weather on mobile